KLOL/LOL METAR and TAF weather

Enter ICAO airport designator
Station Type Date Time Source
KLOL METAR 2020/06/05 07:53 UTC NOAA

KLOL 050753Z AUTO 00000KT 10SM CLR 17/02 A2982 RMK AO2 SLP057 T01670017 403560106


Station Type Date Time Source
KLOL Decoded METAR 2020/06/05 07:53 UTC NOAA

LOVELOCK DERBY FIELD, NV, United States (KLOL) 40-04N 118-34W 1189M
Jun 05, 2020 - 03:53 AM EDT / 2020.06.05 0753 UTC
Wind: Calm:0
Visibility: 10 mile(s):0
Sky conditions: clear
Temperature: 62.1 F (16.7 C)
Dew Point: 35.1 F (1.7 C)
Relative Humidity: 36%
Pressure (altimeter): 29.82 in. Hg (1009 hPa)
ob: KLOL 050753Z AUTO 00000KT 10SM CLR 17/02 A2982 RMK AO2 SLP057 T01670017 403560106
cycle: 8

Station Type Date Time Source
KLOL TAF 2010/01/05 05:22 UTC NOAA

TAF KLOL 050522Z 0506/0606 00000KT 1/4SM FZFG VV001
FM052000 VRB03KT 3SM BR OVC002
AMD NOT SKED

Example: see airport list